createdAt,value
2022-07-26T00:00:23.214Z,24.62
2022-07-26T00:15:23.212Z,24.38
2022-07-26T00:30:23.319Z,24.40
2022-07-26T00:45:23.143Z,24.52
2022-07-26T01:00:23.385Z,24.27
2022-07-26T01:15:23.277Z,24.22
2022-07-26T01:30:23.380Z,24.53
2022-07-26T01:45:23.417Z,24.20
2022-07-26T02:00:23.638Z,24.12
2022-07-26T02:15:23.336Z,24.20
2022-07-26T02:30:23.386Z,24.40
2022-07-26T02:45:23.443Z,24.25
2022-07-26T03:00:23.577Z,24.08
2022-07-26T03:15:23.767Z,23.68
2022-07-26T03:30:24.831Z,23.47
2022-07-26T03:45:23.441Z,23.17
2022-07-26T04:00:23.519Z,23.20
2022-07-26T04:15:23.619Z,22.83
2022-07-26T04:30:23.513Z,22.77
2022-07-26T04:45:23.606Z,22.85
2022-07-26T05:00:29.575Z,22.70
2022-07-26T05:15:23.545Z,22.87
2022-07-26T05:30:23.549Z,23.08
2022-07-26T05:45:23.551Z,23.23
2022-07-26T06:00:23.893Z,23.12
2022-07-26T06:15:23.851Z,23.12
2022-07-26T06:30:23.890Z,23.38
2022-07-26T06:45:23.806Z,23.45
2022-07-26T07:00:23.870Z,23.65
2022-07-26T07:15:23.721Z,24.55
2022-07-26T07:30:23.941Z,24.83
2022-07-26T07:45:23.981Z,27.12
2022-07-26T08:00:27.176Z,27.77
2022-07-26T08:15:24.017Z,28.43
2022-07-26T08:30:23.954Z,28.50
2022-07-26T08:45:23.993Z,27.17
2022-07-26T09:00:26.537Z,27.02
2022-07-26T09:15:24.114Z,26.75
2022-07-26T09:30:33.264Z,26.30
2022-07-26T09:45:33.284Z,26.45
2022-07-26T10:00:33.125Z,26.43
2022-07-26T10:15:23.076Z,26.62
2022-07-26T10:30:23.055Z,26.85
2022-07-26T10:45:23.060Z,26.77
2022-07-26T11:00:23.330Z,26.25
2022-07-26T11:15:23.197Z,26.53
2022-07-26T11:30:23.178Z,26.75
2022-07-26T11:45:23.369Z,27.00
2022-07-26T12:00:23.604Z,27.60
2022-07-26T12:15:23.393Z,27.35
2022-07-26T12:30:23.402Z,27.48
2022-07-26T12:45:23.492Z,27.53
2022-07-26T13:00:23.746Z,27.57
2022-07-26T13:15:24.061Z,27.60
2022-07-26T13:30:23.245Z,27.27
2022-07-26T13:45:23.539Z,27.88
2022-07-26T14:00:23.673Z,27.80
2022-07-26T14:15:23.874Z,27.80
2022-07-26T14:30:23.524Z,27.60
2022-07-26T14:45:23.549Z,27.65
2022-07-26T15:00:23.834Z,27.60
2022-07-26T15:15:23.556Z,27.47
2022-07-26T15:30:23.932Z,27.38
2022-07-26T15:45:25.060Z,28.20
2022-07-26T16:00:24.730Z,28.37
2022-07-26T16:15:24.341Z,28.75
2022-07-26T16:30:23.741Z,29.37
2022-07-26T16:45:23.919Z,29.27
2022-07-26T17:00:24.082Z,28.67
2022-07-26T17:15:23.715Z,28.63
2022-07-26T17:30:23.936Z,27.92
2022-07-26T17:45:23.852Z,27.42
2022-07-26T18:00:28.621Z,27.00
2022-07-26T18:15:23.930Z,26.75
2022-07-26T18:30:24.379Z,26.15
2022-07-26T18:45:23.877Z,25.40
2022-07-26T19:00:25.557Z,24.90
2022-07-26T19:15:24.005Z,24.10
2022-07-26T19:30:24.014Z,24.47
2022-07-26T19:45:23.938Z,24.23
2022-07-26T20:00:24.218Z,23.85
2022-07-26T20:15:24.220Z,23.73
2022-07-26T20:30:24.112Z,23.45
2022-07-26T20:45:24.040Z,23.47
2022-07-26T21:00:33.200Z,23.12
2022-07-26T21:15:23.189Z,23.00
2022-07-26T21:30:23.302Z,22.62
2022-07-26T21:45:23.171Z,22.52
2022-07-26T22:00:35.033Z,23.00
2022-07-26T22:15:23.492Z,22.25
2022-07-26T22:30:23.411Z,22.30
2022-07-26T22:45:23.351Z,21.62
2022-07-26T23:00:23.669Z,21.50
2022-07-26T23:15:23.315Z,21.07
2022-07-26T23:30:23.286Z,20.95
2022-07-26T23:45:23.344Z,20.93
